LFRI

La Roche-sur-Yon Airport

La Roche-sur-Yon/Les Ajoncs, France
TAF LFRI 181700Z 1818/1918 23008KT 9999 SCT020 TEMPO 1821/1908 BKN012
Issued Valid From Valid To
Sep-18 @ 17:00 UTC
(12 hours ago)
Sep-18 @ 18:00 UTC
(11 hours ago)
Sep-19 @ 18:00 UTC
(in 13 hours)
Sep-18 @ 18:00 to Sep-19 @ 18:00
TAF LFRI 181700Z 1818/1918 23008KT 9999 SCT020
Wind Visibility Clouds
230° at 8 knots 10,000+ meters
  • Scattered at 2,000' AGL
Temporary Sep-18 @ 21:00 to Sep-19 @ 08:00
TEMPO 1821/1908 BKN012
Clouds
  • Broken at 1,200' AGL
TAF LFRI 181700Z 1818/1918 23008KT 9999 SCT020 TEMPO 1821/1908 BKN012
Issued Sep-18 @ 17:00 UTC
(12 hours ago)
Valid From Sep-18 @ 18:00 UTC
(11 hours ago)
Valid To Sep-19 @ 18:00 UTC
(in 13 hours)
Sep-18 @ 18:00 - Sep-19 @ 18:00
Wind Visibility
230° at 8 knots 10,000+ meters
Clouds
  • Scattered at 2,000' AGL
Temporary Sep-18 @ 21:00 - Sep-19 @ 08:00
Clouds
  • Broken at 1,200' AGL